sensor_id;sensor_type;location;lat;lon;timestamp;P1;durP1;ratioP1;P2;durP2;ratioP2
82952;SDS011;74888;40.196;44.560;2024-02-28T00:01:48;19.02;;;7.05;;
82952;SDS011;74888;40.196;44.560;2024-02-28T00:04:17;18.98;;;8.00;;
82952;SDS011;74888;40.196;44.560;2024-02-28T00:06:43;19.17;;;8.13;;
82952;SDS011;74888;40.196;44.560;2024-02-28T00:09:11;27.55;;;8.23;;
82952;SDS011;74888;40.196;44.560;2024-02-28T00:11:43;17.75;;;7.28;;
82952;SDS011;74888;40.196;44.560;2024-02-28T00:14:26;21.35;;;7.45;;
82952;SDS011;74888;40.196;44.560;2024-02-28T00:16:58;18.80;;;7.63;;
82952;SDS011;74888;40.196;44.560;2024-02-28T00:19:23;20.63;;;7.82;;
82952;SDS011;74888;40.196;44.560;2024-02-28T00:21:51;19.58;;;7.93;;
82952;SDS011;74888;40.196;44.560;2024-02-28T00:24:17;22.02;;;7.88;;
82952;SDS011;74888;40.196;44.560;2024-02-28T00:29:10;22.52;;;8.50;;
82952;SDS011;74888;40.196;44.560;2024-02-28T00:34:01;17.40;;;7.38;;
82952;SDS011;74888;40.196;44.560;2024-02-28T00:38:58;17.17;;;7.43;;
82952;SDS011;74888;40.196;44.560;2024-02-28T00:41:25;19.67;;;7.88;;
82952;SDS011;74888;40.196;44.560;2024-02-28T00:43:51;23.70;;;7.72;;
82952;SDS011;74888;40.196;44.560;2024-02-28T00:48:42;16.58;;;6.07;;
82952;SDS011;74888;40.196;44.560;2024-02-28T00:53:33;16.70;;;6.00;;
82952;SDS011;74888;40.196;44.560;2024-02-28T00:55:59;14.30;;;6.40;;
82952;SDS011;74888;40.196;44.560;2024-02-28T01:01:00;18.05;;;6.57;;
82952;SDS011;74888;40.196;44.560;2024-02-28T01:03:25;14.27;;;6.47;;
82952;SDS011;74888;40.196;44.560;2024-02-28T01:08:17;19.63;;;6.93;;
82952;SDS011;74888;40.196;44.560;2024-02-28T01:10:46;15.77;;;6.25;;
82952;SDS011;74888;40.196;44.560;2024-02-28T01:13:11;17.63;;;6.05;;
82952;SDS011;74888;40.196;44.560;2024-02-28T01:18:07;17.50;;;7.00;;
82952;SDS011;74888;40.196;44.560;2024-02-28T01:20:33;18.35;;;7.53;;
82952;SDS011;74888;40.196;44.560;2024-02-28T01:22:58;19.60;;;7.85;;
82952;SDS011;74888;40.196;44.560;2024-02-28T01:25:24;19.10;;;7.05;;
82952;SDS011;74888;40.196;44.560;2024-02-28T01:27:50;21.67;;;7.00;;
82952;SDS011;74888;40.196;44.560;2024-02-28T01:30:17;16.08;;;7.35;;
82952;SDS011;74888;40.196;44.560;2024-02-28T01:35:13;18.15;;;6.50;;
82952;SDS011;74888;40.196;44.560;2024-02-28T01:37:39;15.90;;;6.70;;
82952;SDS011;74888;40.196;44.560;2024-02-28T01:40:05;14.63;;;6.70;;
82952;SDS011;74888;40.196;44.560;2024-02-28T01:42:33;18.23;;;6.13;;
82952;SDS011;74888;40.196;44.560;2024-02-28T01:44:59;16.80;;;6.38;;
82952;SDS011;74888;40.196;44.560;2024-02-28T01:47:24;16.73;;;6.15;;
82952;SDS011;74888;40.196;44.560;2024-02-28T01:49:52;20.73;;;6.03;;
82952;SDS011;74888;40.196;44.560;2024-02-28T01:57:18;15.77;;;5.80;;
82952;SDS011;74888;40.196;44.560;2024-02-28T01:59:45;17.55;;;6.03;;
82952;SDS011;74888;40.196;44.560;2024-02-28T02:02:14;11.88;;;5.88;;
82952;SDS011;74888;40.196;44.560;2024-02-28T02:04:40;15.38;;;5.93;;
82952;SDS011;74888;40.196;44.560;2024-02-28T02:09:54;13.70;;;6.82;;
82952;SDS011;74888;40.196;44.560;2024-02-28T02:12:22;17.42;;;6.20;;
82952;SDS011;74888;40.196;44.560;2024-02-28T02:14:48;13.75;;;5.85;;
82952;SDS011;74888;40.196;44.560;2024-02-28T02:17:14;19.77;;;7.00;;
82952;SDS011;74888;40.196;44.560;2024-02-28T02:19:47;17.25;;;6.30;;
82952;SDS011;74888;40.196;44.560;2024-02-28T02:22:15;13.93;;;6.00;;
82952;SDS011;74888;40.196;44.560;2024-02-28T02:24:43;18.85;;;7.20;;
82952;SDS011;74888;40.196;44.560;2024-02-28T02:29:39;14.52;;;6.20;;
82952;SDS011;74888;40.196;44.560;2024-02-28T02:34:34;14.95;;;7.13;;
82952;SDS011;74888;40.196;44.560;2024-02-28T02:37:01;14.95;;;7.07;;
82952;SDS011;74888;40.196;44.560;2024-02-28T02:39:28;16.67;;;6.70;;
82952;SDS011;74888;40.196;44.560;2024-02-28T02:41:55;20.10;;;5.82;;
82952;SDS011;74888;40.196;44.560;2024-02-28T02:44:21;17.35;;;6.57;;
82952;SDS011;74888;40.196;44.560;2024-02-28T02:46:47;18.73;;;6.85;;
82952;SDS011;74888;40.196;44.560;2024-02-28T02:49:14;12.93;;;6.05;;
82952;SDS011;74888;40.196;44.560;2024-02-28T02:51:45;17.60;;;6.43;;
82952;SDS011;74888;40.196;44.560;2024-02-28T02:54:13;14.23;;;6.57;;
82952;SDS011;74888;40.196;44.560;2024-02-28T02:56:43;20.70;;;6.65;;
82952;SDS011;74888;40.196;44.560;2024-02-28T02:59:10;13.80;;;5.78;;
82952;SDS011;74888;40.196;44.560;2024-02-28T03:01:37;17.90;;;5.70;;
82952;SDS011;74888;40.196;44.560;2024-02-28T03:04:04;13.05;;;6.13;;
82952;SDS011;74888;40.196;44.560;2024-02-28T03:06:31;14.10;;;6.03;;
82952;SDS011;74888;40.196;44.560;2024-02-28T03:11:27;21.55;;;7.38;;
82952;SDS011;74888;40.196;44.560;2024-02-28T03:13:53;21.83;;;6.47;;
82952;SDS011;74888;40.196;44.560;2024-02-28T03:16:19;15.68;;;6.20;;
82952;SDS011;74888;40.196;44.560;2024-02-28T03:18:50;18.55;;;6.95;;
82952;SDS011;74888;40.196;44.560;2024-02-28T03:21:23;18.58;;;6.90;;
82952;SDS011;74888;40.196;44.560;2024-02-28T03:23:48;18.65;;;7.35;;
82952;SDS011;74888;40.196;44.560;2024-02-28T03:26:14;20.27;;;8.02;;
82952;SDS011;74888;40.196;44.560;2024-02-28T03:28:40;20.67;;;8.50;;
82952;SDS011;74888;40.196;44.560;2024-02-28T03:31:06;18.95;;;9.10;;
82952;SDS011;74888;40.196;44.560;2024-02-28T03:33:32;23.92;;;8.65;;
82952;SDS011;74888;40.196;44.560;2024-02-28T03:36:00;21.98;;;9.13;;
82952;SDS011;74888;40.196;44.560;2024-02-28T03:38:27;28.70;;;9.02;;
82952;SDS011;74888;40.196;44.560;2024-02-28T03:40:53;26.05;;;10.27;;
82952;SDS011;74888;40.196;44.560;2024-02-28T03:43:20;18.38;;;7.72;;
82952;SDS011;74888;40.196;44.560;2024-02-28T03:45:46;16.20;;;6.63;;
82952;SDS011;74888;40.196;44.560;2024-02-28T03:48:11;28.00;;;7.13;;
82952;SDS011;74888;40.196;44.560;2024-02-28T03:50:37;21.00;;;7.00;;
82952;SDS011;74888;40.196;44.560;2024-02-28T03:53:03;19.60;;;6.90;;
82952;SDS011;74888;40.196;44.560;2024-02-28T03:55:29;18.33;;;6.65;;
82952;SDS011;74888;40.196;44.560;2024-02-28T03:57:55;25.40;;;7.88;;
82952;SDS011;74888;40.196;44.560;2024-02-28T04:00:22;20.23;;;7.38;;
82952;SDS011;74888;40.196;44.560;2024-02-28T04:02:47;19.48;;;6.15;;
82952;SDS011;74888;40.196;44.560;2024-02-28T04:05:20;23.25;;;6.75;;
82952;SDS011;74888;40.196;44.560;2024-02-28T04:07:47;26.73;;;8.10;;
82952;SDS011;74888;40.196;44.560;2024-02-28T04:12:43;23.80;;;8.27;;
82952;SDS011;74888;40.196;44.560;2024-02-28T04:15:14;23.10;;;8.15;;
82952;SDS011;74888;40.196;44.560;2024-02-28T04:20:17;20.92;;;9.80;;
82952;SDS011;74888;40.196;44.560;2024-02-28T04:22:42;21.25;;;7.80;;
82952;SDS011;74888;40.196;44.560;2024-02-28T04:25:10;26.33;;;9.00;;
82952;SDS011;74888;40.196;44.560;2024-02-28T04:27:38;27.42;;;9.27;;
82952;SDS011;74888;40.196;44.560;2024-02-28T04:30:06;30.73;;;8.20;;
82952;SDS011;74888;40.196;44.560;2024-02-28T04:32:32;19.10;;;7.68;;
82952;SDS011;74888;40.196;44.560;2024-02-28T04:34:58;22.65;;;9.00;;
82952;SDS011;74888;40.196;44.560;2024-02-28T04:37:24;32.83;;;10.32;;
82952;SDS011;74888;40.196;44.560;2024-02-28T04:39:50;26.13;;;9.55;;
82952;SDS011;74888;40.196;44.560;2024-02-28T04:42:15;33.33;;;13.73;;
82952;SDS011;74888;40.196;44.560;2024-02-28T04:47:07;30.33;;;11.18;;
82952;SDS011;74888;40.196;44.560;2024-02-28T04:52:05;31.48;;;11.77;;
82952;SDS011;74888;40.196;44.560;2024-02-28T04:54:32;36.78;;;13.30;;
82952;SDS011;74888;40.196;44.560;2024-02-28T04:56:57;27.77;;;11.15;;
82952;SDS011;74888;40.196;44.560;2024-02-28T05:01:53;32.03;;;10.90;;
82952;SDS011;74888;40.196;44.560;2024-02-28T05:06:44;32.03;;;12.65;;
82952;SDS011;74888;40.196;44.560;2024-02-28T05:11:36;31.65;;;8.82;;
82952;SDS011;74888;40.196;44.560;2024-02-28T05:16:29;38.95;;;12.85;;
82952;SDS011;74888;40.196;44.560;2024-02-28T05:18:55;48.30;;;15.05;;
82952;SDS011;74888;40.196;44.560;2024-02-28T05:23:47;37.60;;;16.38;;
82952;SDS011;74888;40.196;44.560;2024-02-28T05:28:39;20.20;;;8.60;;
82952;SDS011;74888;40.196;44.560;2024-02-28T05:33:53;25.17;;;8.63;;
82952;SDS011;74888;40.196;44.560;2024-02-28T05:36:19;25.02;;;11.02;;
82952;SDS011;74888;40.196;44.560;2024-02-28T05:38:46;24.42;;;9.05;;
82952;SDS011;74888;40.196;44.560;2024-02-28T05:41:13;33.13;;;12.18;;
82952;SDS011;74888;40.196;44.560;2024-02-28T05:43:41;24.70;;;10.05;;
82952;SDS011;74888;40.196;44.560;2024-02-28T05:46:09;29.50;;;9.40;;
82952;SDS011;74888;40.196;44.560;2024-02-28T05:48:35;35.92;;;12.02;;
82952;SDS011;74888;40.196;44.560;2024-02-28T05:51:01;36.25;;;11.75;;
82952;SDS011;74888;40.196;44.560;2024-02-28T05:53:28;32.10;;;11.55;;
82952;SDS011;74888;40.196;44.560;2024-02-28T05:58:27;26.10;;;10.32;;
82952;SDS011;74888;40.196;44.560;2024-02-28T06:00:53;26.48;;;8.98;;
82952;SDS011;74888;40.196;44.560;2024-02-28T06:03:18;24.60;;;10.57;;
82952;SDS011;74888;40.196;44.560;2024-02-28T06:05:44;27.17;;;10.23;;
82952;SDS011;74888;40.196;44.560;2024-02-28T06:08:10;26.35;;;10.55;;
82952;SDS011;74888;40.196;44.560;2024-02-28T06:13:02;29.92;;;11.02;;
82952;SDS011;74888;40.196;44.560;2024-02-28T06:17:57;26.15;;;10.13;;
82952;SDS011;74888;40.196;44.560;2024-02-28T06:20:25;33.20;;;11.38;;
82952;SDS011;74888;40.196;44.560;2024-02-28T06:22:51;30.10;;;11.30;;
82952;SDS011;74888;40.196;44.560;2024-02-28T06:25:18;23.38;;;9.98;;
82952;SDS011;74888;40.196;44.560;2024-02-28T06:27:48;25.08;;;9.65;;
82952;SDS011;74888;40.196;44.560;2024-02-28T06:30:14;34.60;;;9.90;;
82952;SDS011;74888;40.196;44.560;2024-02-28T06:32:42;22.55;;;9.77;;
82952;SDS011;74888;40.196;44.560;2024-02-28T06:35:08;37.53;;;12.07;;
82952;SDS011;74888;40.196;44.560;2024-02-28T06:37:35;26.23;;;10.38;;
82952;SDS011;74888;40.196;44.560;2024-02-28T06:40:02;28.45;;;10.45;;
82952;SDS011;74888;40.196;44.560;2024-02-28T06:42:33;27.15;;;10.95;;
82952;SDS011;74888;40.196;44.560;2024-02-28T06:45:07;27.48;;;9.98;;
82952;SDS011;74888;40.196;44.560;2024-02-28T06:47:34;27.38;;;10.52;;
82952;SDS011;74888;40.196;44.560;2024-02-28T06:50:07;25.00;;;10.68;;
82952;SDS011;74888;40.196;44.560;2024-02-28T06:52:34;66.28;;;14.15;;
82952;SDS011;74888;40.196;44.560;2024-02-28T06:55:00;22.58;;;8.35;;
82952;SDS011;74888;40.196;44.560;2024-02-28T06:57:29;28.52;;;9.82;;
82952;SDS011;74888;40.196;44.560;2024-02-28T06:59:55;25.70;;;10.07;;
82952;SDS011;74888;40.196;44.560;2024-02-28T07:04:51;22.27;;;8.27;;
82952;SDS011;74888;40.196;44.560;2024-02-28T07:07:24;19.83;;;7.40;;
82952;SDS011;74888;40.196;44.560;2024-02-28T07:09:50;21.25;;;7.70;;
82952;SDS011;74888;40.196;44.560;2024-02-28T07:12:15;26.10;;;8.82;;
82952;SDS011;74888;40.196;44.560;2024-02-28T07:14:41;22.13;;;8.35;;
82952;SDS011;74888;40.196;44.560;2024-02-28T07:17:07;17.70;;;8.05;;
82952;SDS011;74888;40.196;44.560;2024-02-28T07:19:34;17.13;;;7.45;;
82952;SDS011;74888;40.196;44.560;2024-02-28T07:21:59;19.30;;;7.22;;
82952;SDS011;74888;40.196;44.560;2024-02-28T07:24:32;18.77;;;6.78;;
82952;SDS011;74888;40.196;44.560;2024-02-28T07:26:58;26.67;;;7.25;;
82952;SDS011;74888;40.196;44.560;2024-02-28T07:29:25;23.10;;;8.52;;
82952;SDS011;74888;40.196;44.560;2024-02-28T07:31:52;21.63;;;7.85;;
82952;SDS011;74888;40.196;44.560;2024-02-28T07:34:17;21.25;;;8.30;;
82952;SDS011;74888;40.196;44.560;2024-02-28T07:36:43;28.98;;;9.95;;
82952;SDS011;74888;40.196;44.560;2024-02-28T07:39:09;29.60;;;8.88;;
82952;SDS011;74888;40.196;44.560;2024-02-28T07:41:41;22.08;;;8.27;;
82952;SDS011;74888;40.196;44.560;2024-02-28T07:44:09;24.08;;;8.73;;
82952;SDS011;74888;40.196;44.560;2024-02-28T07:46:42;29.08;;;9.38;;
82952;SDS011;74888;40.196;44.560;2024-02-28T07:49:09;24.58;;;10.40;;
82952;SDS011;74888;40.196;44.560;2024-02-28T07:51:42;24.00;;;8.90;;
82952;SDS011;74888;40.196;44.560;2024-02-28T07:54:07;23.98;;;9.60;;
82952;SDS011;74888;40.196;44.560;2024-02-28T07:56:33;25.73;;;9.07;;
82952;SDS011;74888;40.196;44.560;2024-02-28T07:58:58;27.65;;;10.02;;
82952;SDS011;74888;40.196;44.560;2024-02-28T08:01:24;23.05;;;9.60;;
82952;SDS011;74888;40.196;44.560;2024-02-28T08:03:50;27.27;;;9.90;;
82952;SDS011;74888;40.196;44.560;2024-02-28T08:06:17;26.10;;;10.65;;
82952;SDS011;74888;40.196;44.560;2024-02-28T08:08:45;25.60;;;10.25;;
82952;SDS011;74888;40.196;44.560;2024-02-28T08:11:14;26.35;;;10.18;;
82952;SDS011;74888;40.196;44.560;2024-02-28T08:13:40;25.13;;;9.30;;
82952;SDS011;74888;40.196;44.560;2024-02-28T08:16:06;19.50;;;9.38;;
82952;SDS011;74888;40.196;44.560;2024-02-28T08:18:34;22.55;;;9.68;;
82952;SDS011;74888;40.196;44.560;2024-02-28T08:23:31;21.52;;;9.57;;
82952;SDS011;74888;40.196;44.560;2024-02-28T08:25:57;26.65;;;8.93;;
82952;SDS011;74888;40.196;44.560;2024-02-28T08:28:22;23.45;;;9.25;;
82952;SDS011;74888;40.196;44.560;2024-02-28T08:30:49;24.17;;;8.85;;
82952;SDS011;74888;40.196;44.560;2024-02-28T08:33:15;21.90;;;9.07;;
82952;SDS011;74888;40.196;44.560;2024-02-28T08:35:41;21.85;;;8.90;;
82952;SDS011;74888;40.196;44.560;2024-02-28T08:38:09;26.35;;;9.43;;
82952;SDS011;74888;40.196;44.560;2024-02-28T08:40:35;23.15;;;8.80;;
82952;SDS011;74888;40.196;44.560;2024-02-28T08:43:01;18.30;;;7.90;;
82952;SDS011;74888;40.196;44.560;2024-02-28T08:45:27;17.05;;;7.82;;
82952;SDS011;74888;40.196;44.560;2024-02-28T08:47:52;27.67;;;9.02;;
82952;SDS011;74888;40.196;44.560;2024-02-28T08:50:19;27.65;;;7.95;;
82952;SDS011;74888;40.196;44.560;2024-02-28T08:52:45;19.92;;;7.82;;
82952;SDS011;74888;40.196;44.560;2024-02-28T08:55:11;16.00;;;6.60;;
82952;SDS011;74888;40.196;44.560;2024-02-28T08:57:44;21.23;;;7.97;;
82952;SDS011;74888;40.196;44.560;2024-02-28T09:00:16;18.88;;;8.02;;
82952;SDS011;74888;40.196;44.560;2024-02-28T09:02:43;17.70;;;8.10;;
82952;SDS011;74888;40.196;44.560;2024-02-28T09:05:10;21.48;;;8.50;;
82952;SDS011;74888;40.196;44.560;2024-02-28T09:07:36;25.63;;;10.75;;
82952;SDS011;74888;40.196;44.560;2024-02-28T09:10:05;28.58;;;10.18;;
82952;SDS011;74888;40.196;44.560;2024-02-28T09:12:31;21.52;;;9.65;;
82952;SDS011;74888;40.196;44.560;2024-02-28T09:15:00;19.75;;;8.70;;
82952;SDS011;74888;40.196;44.560;2024-02-28T09:17:27;23.73;;;8.75;;
82952;SDS011;74888;40.196;44.560;2024-02-28T09:19:53;19.45;;;8.40;;
82952;SDS011;74888;40.196;44.560;2024-02-28T09:22:19;24.70;;;10.48;;
82952;SDS011;74888;40.196;44.560;2024-02-28T09:27:15;15.43;;;7.78;;
82952;SDS011;74888;40.196;44.560;2024-02-28T09:29:40;24.90;;;8.60;;
82952;SDS011;74888;40.196;44.560;2024-02-28T09:32:07;22.45;;;8.55;;
82952;SDS011;74888;40.196;44.560;2024-02-28T09:34:34;25.52;;;9.95;;
82952;SDS011;74888;40.196;44.560;2024-02-28T09:36:59;19.40;;;9.10;;
82952;SDS011;74888;40.196;44.560;2024-02-28T09:39:27;20.98;;;8.43;;
82952;SDS011;74888;40.196;44.560;2024-02-28T09:41:53;21.75;;;9.02;;
82952;SDS011;74888;40.196;44.560;2024-02-28T09:44:20;34.67;;;9.30;;
82952;SDS011;74888;40.196;44.560;2024-02-28T09:46:51;22.92;;;8.27;;
82952;SDS011;74888;40.196;44.560;2024-02-28T09:49:18;19.98;;;8.20;;
82952;SDS011;74888;40.196;44.560;2024-02-28T09:51:44;30.65;;;9.30;;
82952;SDS011;74888;40.196;44.560;2024-02-28T09:54:15;24.80;;;8.98;;
82952;SDS011;74888;40.196;44.560;2024-02-28T09:56:41;24.10;;;9.20;;
82952;SDS011;74888;40.196;44.560;2024-02-28T09:59:06;27.58;;;10.77;;
82952;SDS011;74888;40.196;44.560;2024-02-28T10:01:35;24.25;;;9.45;;
82952;SDS011;74888;40.196;44.560;2024-02-28T10:04:08;37.55;;;22.98;;
82952;SDS011;74888;40.196;44.560;2024-02-28T10:06:38;20.90;;;8.82;;
82952;SDS011;74888;40.196;44.560;2024-02-28T10:09:07;28.05;;;11.32;;
82952;SDS011;74888;40.196;44.560;2024-02-28T10:11:33;21.40;;;8.75;;
82952;SDS011;74888;40.196;44.560;2024-02-28T10:14:00;21.67;;;10.13;;
82952;SDS011;74888;40.196;44.560;2024-02-28T10:16:27;28.10;;;9.05;;
82952;SDS011;74888;40.196;44.560;2024-02-28T10:18:54;23.27;;;7.80;;
82952;SDS011;74888;40.196;44.560;2024-02-28T10:21:26;21.17;;;8.65;;
82952;SDS011;74888;40.196;44.560;2024-02-28T10:23:52;19.90;;;8.73;;
82952;SDS011;74888;40.196;44.560;2024-02-28T10:26:18;18.35;;;8.95;;
82952;SDS011;74888;40.196;44.560;2024-02-28T10:28:43;19.52;;;7.97;;
82952;SDS011;74888;40.196;44.560;2024-02-28T10:33:41;22.08;;;9.02;;
82952;SDS011;74888;40.196;44.560;2024-02-28T10:36:14;22.60;;;8.85;;
82952;SDS011;74888;40.196;44.560;2024-02-28T10:38:39;19.38;;;8.98;;
82952;SDS011;74888;40.196;44.560;2024-02-28T10:41:06;18.85;;;8.32;;
82952;SDS011;74888;40.196;44.560;2024-02-28T10:43:32;17.45;;;8.18;;
82952;SDS011;74888;40.196;44.560;2024-02-28T10:46:00;21.70;;;8.32;;
82952;SDS011;74888;40.196;44.560;2024-02-28T10:48:26;22.98;;;9.65;;
82952;SDS011;74888;40.196;44.560;2024-02-28T10:50:52;20.98;;;8.50;;
82952;SDS011;74888;40.196;44.560;2024-02-28T10:53:37;22.67;;;9.50;;
82952;SDS011;74888;40.196;44.560;2024-02-28T10:56:09;18.33;;;8.30;;
82952;SDS011;74888;40.196;44.560;2024-02-28T10:58:37;19.73;;;9.60;;
82952;SDS011;74888;40.196;44.560;2024-02-28T11:01:17;21.05;;;9.05;;
82952;SDS011;74888;40.196;44.560;2024-02-28T11:03:44;22.23;;;9.95;;
82952;SDS011;74888;40.196;44.560;2024-02-28T11:06:17;23.27;;;10.05;;
82952;SDS011;74888;40.196;44.560;2024-02-28T11:08:47;21.17;;;8.57;;
82952;SDS011;74888;40.196;44.560;2024-02-28T11:11:14;28.73;;;10.25;;
82952;SDS011;74888;40.196;44.560;2024-02-28T11:13:52;26.77;;;9.82;;
82952;SDS011;74888;40.196;44.560;2024-02-28T11:16:25;21.10;;;9.50;;
82952;SDS011;74888;40.196;44.560;2024-02-28T11:18:53;24.33;;;10.02;;
82952;SDS011;74888;40.196;44.560;2024-02-28T11:21:19;26.52;;;10.43;;
82952;SDS011;74888;40.196;44.560;2024-02-28T11:23:50;30.95;;;10.52;;
82952;SDS011;74888;40.196;44.560;2024-02-28T11:26:15;24.85;;;9.77;;
82952;SDS011;74888;40.196;44.560;2024-02-28T11:28:41;23.45;;;9.73;;
82952;SDS011;74888;40.196;44.560;2024-02-28T11:31:07;33.72;;;13.25;;
82952;SDS011;74888;40.196;44.560;2024-02-28T11:33:33;22.50;;;10.60;;
82952;SDS011;74888;40.196;44.560;2024-02-28T11:35:59;20.10;;;9.70;;
82952;SDS011;74888;40.196;44.560;2024-02-28T11:38:25;24.92;;;9.80;;
82952;SDS011;74888;40.196;44.560;2024-02-28T11:40:51;27.88;;;9.50;;
82952;SDS011;74888;40.196;44.560;2024-02-28T11:43:18;20.20;;;8.55;;
82952;SDS011;74888;40.196;44.560;2024-02-28T11:45:44;18.02;;;8.48;;
82952;SDS011;74888;40.196;44.560;2024-02-28T11:48:15;22.15;;;10.30;;
82952;SDS011;74888;40.196;44.560;2024-02-28T11:50:41;19.02;;;9.93;;
82952;SDS011;74888;40.196;44.560;2024-02-28T11:53:07;20.83;;;9.40;;
82952;SDS011;74888;40.196;44.560;2024-02-28T11:55:34;19.38;;;9.38;;
82952;SDS011;74888;40.196;44.560;2024-02-28T11:58:01;23.42;;;9.95;;
82952;SDS011;74888;40.196;44.560;2024-02-28T12:00:26;23.58;;;10.27;;
82952;SDS011;74888;40.196;44.560;2024-02-28T12:02:52;18.52;;;8.95;;
82952;SDS011;74888;40.196;44.560;2024-02-28T12:05:29;23.42;;;9.60;;
82952;SDS011;74888;40.196;44.560;2024-02-28T12:07:54;22.30;;;9.27;;
82952;SDS011;74888;40.196;44.560;2024-02-28T12:10:21;21.15;;;9.40;;
82952;SDS011;74888;40.196;44.560;2024-02-28T12:12:47;27.35;;;10.60;;
82952;SDS011;74888;40.196;44.560;2024-02-28T12:15:15;32.97;;;10.23;;
82952;SDS011;74888;40.196;44.560;2024-02-28T12:17:43;20.63;;;10.50;;
82952;SDS011;74888;40.196;44.560;2024-02-28T12:20:09;21.83;;;10.50;;
82952;SDS011;74888;40.196;44.560;2024-02-28T12:22:35;19.50;;;10.07;;
82952;SDS011;74888;40.196;44.560;2024-02-28T12:25:01;27.77;;;10.60;;
82952;SDS011;74888;40.196;44.560;2024-02-28T12:27:30;25.17;;;10.18;;
82952;SDS011;74888;40.196;44.560;2024-02-28T12:29:56;20.02;;;9.05;;
82952;SDS011;74888;40.196;44.560;2024-02-28T12:32:22;25.10;;;10.05;;
82952;SDS011;74888;40.196;44.560;2024-02-28T12:34:48;22.35;;;10.32;;
82952;SDS011;74888;40.196;44.560;2024-02-28T12:37:13;24.83;;;10.63;;
82952;SDS011;74888;40.196;44.560;2024-02-28T12:39:39;25.15;;;10.23;;
82952;SDS011;74888;40.196;44.560;2024-02-28T12:42:05;24.95;;;10.10;;
82952;SDS011;74888;40.196;44.560;2024-02-28T12:44:33;26.20;;;10.02;;
82952;SDS011;74888;40.196;44.560;2024-02-28T12:46:59;23.48;;;10.57;;
82952;SDS011;74888;40.196;44.560;2024-02-28T12:49:25;20.83;;;10.32;;
82952;SDS011;74888;40.196;44.560;2024-02-28T12:51:50;22.77;;;10.20;;
82952;SDS011;74888;40.196;44.560;2024-02-28T12:54:16;24.38;;;11.35;;
82952;SDS011;74888;40.196;44.560;2024-02-28T12:56:44;23.88;;;10.70;;
82952;SDS011;74888;40.196;44.560;2024-02-28T12:59:11;26.17;;;10.50;;
82952;SDS011;74888;40.196;44.560;2024-02-28T13:01:37;29.52;;;11.73;;
82952;SDS011;74888;40.196;44.560;2024-02-28T13:04:04;29.73;;;11.70;;
82952;SDS011;74888;40.196;44.560;2024-02-28T13:06:30;36.47;;;21.40;;
82952;SDS011;74888;40.196;44.560;2024-02-28T13:08:55;31.88;;;13.60;;
82952;SDS011;74888;40.196;44.560;2024-02-28T13:11:22;28.92;;;14.40;;
82952;SDS011;74888;40.196;44.560;2024-02-28T13:13:49;28.25;;;11.32;;
82952;SDS011;74888;40.196;44.560;2024-02-28T13:16:18;33.67;;;12.38;;
82952;SDS011;74888;40.196;44.560;2024-02-28T13:18:45;29.38;;;11.32;;
82952;SDS011;74888;40.196;44.560;2024-02-28T13:21:11;34.38;;;12.77;;
82952;SDS011;74888;40.196;44.560;2024-02-28T13:23:37;26.80;;;12.23;;
82952;SDS011;74888;40.196;44.560;2024-02-28T13:26:08;29.08;;;12.00;;
82952;SDS011;74888;40.196;44.560;2024-02-28T13:28:34;30.63;;;12.02;;
82952;SDS011;74888;40.196;44.560;2024-02-28T13:31:01;21.95;;;10.52;;
82952;SDS011;74888;40.196;44.560;2024-02-28T13:33:27;22.83;;;10.73;;
82952;SDS011;74888;40.196;44.560;2024-02-28T13:35:59;31.73;;;12.27;;
82952;SDS011;74888;40.196;44.560;2024-02-28T13:38:28;19.20;;;10.60;;
82952;SDS011;74888;40.196;44.560;2024-02-28T13:40:55;24.88;;;12.20;;
82952;SDS011;74888;40.196;44.560;2024-02-28T13:43:21;29.95;;;10.90;;
82952;SDS011;74888;40.196;44.560;2024-02-28T13:45:48;35.55;;;12.00;;
82952;SDS011;74888;40.196;44.560;2024-02-28T13:48:15;32.38;;;14.07;;
82952;SDS011;74888;40.196;44.560;2024-02-28T13:50:44;21.60;;;10.40;;
82952;SDS011;74888;40.196;44.560;2024-02-28T13:53:10;23.35;;;11.57;;
82952;SDS011;74888;40.196;44.560;2024-02-28T13:55:36;37.35;;;11.85;;
82952;SDS011;74888;40.196;44.560;2024-02-28T13:58:04;28.40;;;14.50;;
82952;SDS011;74888;40.196;44.560;2024-02-28T14:00:32;25.65;;;10.93;;
82952;SDS011;74888;40.196;44.560;2024-02-28T14:02:59;27.67;;;10.90;;
82952;SDS011;74888;40.196;44.560;2024-02-28T14:05:25;31.27;;;11.40;;
82952;SDS011;74888;40.196;44.560;2024-02-28T14:07:51;24.10;;;11.00;;
82952;SDS011;74888;40.196;44.560;2024-02-28T14:10:17;24.67;;;11.00;;
82952;SDS011;74888;40.196;44.560;2024-02-28T14:12:42;25.88;;;11.57;;
82952;SDS011;74888;40.196;44.560;2024-02-28T14:15:09;24.98;;;10.63;;
82952;SDS011;74888;40.196;44.560;2024-02-28T14:17:37;28.17;;;11.45;;
82952;SDS011;74888;40.196;44.560;2024-02-28T14:20:04;29.33;;;10.77;;
82952;SDS011;74888;40.196;44.560;2024-02-28T14:22:31;21.92;;;10.85;;
82952;SDS011;74888;40.196;44.560;2024-02-28T14:24:58;22.00;;;10.98;;
82952;SDS011;74888;40.196;44.560;2024-02-28T14:27:24;24.48;;;10.70;;
82952;SDS011;74888;40.196;44.560;2024-02-28T14:29:55;25.25;;;11.18;;
82952;SDS011;74888;40.196;44.560;2024-02-28T14:32:21;32.97;;;12.18;;
82952;SDS011;74888;40.196;44.560;2024-02-28T14:34:47;22.05;;;11.20;;
82952;SDS011;74888;40.196;44.560;2024-02-28T14:37:16;27.15;;;11.65;;
82952;SDS011;74888;40.196;44.560;2024-02-28T14:39:42;33.55;;;13.30;;
82952;SDS011;74888;40.196;44.560;2024-02-28T14:42:08;25.45;;;11.63;;
82952;SDS011;74888;40.196;44.560;2024-02-28T14:44:34;25.90;;;12.45;;
82952;SDS011;74888;40.196;44.560;2024-02-28T14:47:00;25.02;;;11.88;;
82952;SDS011;74888;40.196;44.560;2024-02-28T14:49:25;34.25;;;13.35;;
82952;SDS011;74888;40.196;44.560;2024-02-28T14:51:52;95.70;;;29.45;;
82952;SDS011;74888;40.196;44.560;2024-02-28T14:54:17;63.22;;;22.63;;
82952;SDS011;74888;40.196;44.560;2024-02-28T14:56:51;72.68;;;25.65;;
82952;SDS011;74888;40.196;44.560;2024-02-28T14:59:16;70.28;;;24.52;;
82952;SDS011;74888;40.196;44.560;2024-02-28T15:01:42;80.28;;;26.60;;
82952;SDS011;74888;40.196;44.560;2024-02-28T15:04:08;60.88;;;23.90;;
82952;SDS011;74888;40.196;44.560;2024-02-28T15:06:34;47.38;;;18.23;;
82952;SDS011;74888;40.196;44.560;2024-02-28T15:09:00;49.13;;;17.27;;
82952;SDS011;74888;40.196;44.560;2024-02-28T15:11:28;39.67;;;16.10;;
82952;SDS011;74888;40.196;44.560;2024-02-28T15:13:54;35.72;;;14.80;;
82952;SDS011;74888;40.196;44.560;2024-02-28T15:16:19;39.78;;;15.13;;
82952;SDS011;74888;40.196;44.560;2024-02-28T15:18:45;37.88;;;15.43;;
82952;SDS011;74888;40.196;44.560;2024-02-28T15:21:11;30.27;;;13.98;;
82952;SDS011;74888;40.196;44.560;2024-02-28T15:23:37;35.85;;;14.95;;
82952;SDS011;74888;40.196;44.560;2024-02-28T15:26:03;37.00;;;14.48;;
82952;SDS011;74888;40.196;44.560;2024-02-28T15:28:30;34.50;;;13.93;;
82952;SDS011;74888;40.196;44.560;2024-02-28T15:30:56;29.98;;;12.93;;
82952;SDS011;74888;40.196;44.560;2024-02-28T15:33:22;28.75;;;12.73;;
82952;SDS011;74888;40.196;44.560;2024-02-28T15:35:47;32.42;;;12.95;;
82952;SDS011;74888;40.196;44.560;2024-02-28T15:38:13;33.95;;;13.32;;